Time;durP1;ratioP1;P1;durP2;ratioP2;P2;SDS_P1;SDS_P2;PMS_P1;PMS_P2;Temp;Humidity;BMP_temperature;BMP_pressure;BME280_temperature;BME280_humidity;BME280_pressure;Samples;Min_cycle;Max_cycle;Signal;HPM_P1;HPM_P2
2024/03/21 00:00:13;;;;;;;15.60;8.77;;;13.50;99.90;;;;;;6154528;23;20488;-59
2024/03/21 00:02:41;;;;;;;16.63;8.73;;;13.50;99.90;;;;;;6154326;23;20513;-62
2024/03/21 00:05:09;;;;;;;14.40;7.63;;;13.50;99.90;;;;;;6154956;23;20402;-59
2024/03/21 00:07:35;;;;;;;16.43;8.30;;;13.50;99.90;;;;;;6154491;23;20418;-61
2024/03/21 00:10:01;;;;;;;15.23;8.07;;;13.50;99.90;;;;;;6154883;23;20529;-60
2024/03/21 00:12:29;;;;;;;16.30;8.27;;;13.50;99.90;;;;;;6154521;23;20454;-57
2024/03/21 00:14:55;;;;;;;13.60;7.63;;;13.50;99.90;;;;;;6154209;23;20967;-62
2024/03/21 00:17:23;;;;;;;17.20;9.93;;;13.50;99.90;;;;;;6155166;23;20402;-61
2024/03/21 00:19:49;;;;;;;15.93;8.80;;;13.50;99.90;;;;;;6154634;23;20421;-61
2024/03/21 00:22:16;;;;;;;15.40;8.87;;;13.50;99.90;;;;;;6154523;23;20422;-62
2024/03/21 00:24:43;;;;;;;14.07;8.07;;;13.50;99.90;;;;;;6154360;23;20441;-61
2024/03/21 00:27:10;;;;;;;19.67;9.90;;;13.50;99.90;;;;;;6154643;23;20456;-61
2024/03/21 00:29:36;;;;;;;18.53;10.33;;;13.50;99.90;;;;;;6154660;23;20762;-61
2024/03/21 00:32:04;;;;;;;17.63;10.03;;;13.50;99.90;;;;;;6154299;23;20763;-62
2024/03/21 00:34:31;;;;;;;15.33;8.77;;;13.50;99.90;;;;;;6154332;23;20406;-62
2024/03/21 00:36:58;;;;;;;17.93;9.53;;;13.50;99.90;;;;;;6154806;23;20416;-62
2024/03/21 00:39:24;;;;;;;21.50;8.50;;;13.50;99.90;;;;;;6154337;23;20477;-63
2024/03/21 00:41:50;;;;;;;17.63;9.37;;;13.50;99.90;;;;;;6154214;23;20979;-62
2024/03/21 00:44:16;;;;;;;22.43;8.70;;;13.60;99.90;;;;;;6154061;23;20257;-60
2024/03/21 00:46:44;;;;;;;14.47;8.63;;;13.50;99.90;;;;;;6154540;23;20434;-62
2024/03/21 00:49:10;;;;;;;18.57;9.50;;;13.50;99.90;;;;;;6153502;23;20402;-61
2024/03/21 00:51:39;;;;;;;12.37;8.40;;;13.50;99.90;;;;;;6154282;23;20434;-63
2024/03/21 00:54:05;;;;;;;17.83;9.97;;;13.50;99.90;;;;;;6154239;23;20900;-63
2024/03/21 00:56:32;;;;;;;12.93;8.60;;;13.50;99.90;;;;;;6154491;23;20409;-59
2024/03/21 00:59:00;;;;;;;17.33;8.67;;;13.50;99.90;;;;;;6154453;23;20414;-59
2024/03/21 01:01:27;;;;;;;17.10;9.50;;;13.50;99.90;;;;;;6154097;23;20735;-59
2024/03/21 01:03:55;;;;;;;15.83;9.33;;;13.40;99.90;;;;;;6154140;23;20460;-60
2024/03/21 01:06:22;;;;;;;15.50;8.80;;;13.40;99.90;;;;;;6153974;23;20402;-61
2024/03/21 01:08:49;;;;;;;14.90;8.57;;;13.40;99.90;;;;;;6154208;23;20386;-60
2024/03/21 01:11:17;;;;;;;13.13;7.70;;;13.30;99.90;;;;;;6154337;23;20509;-62
2024/03/21 01:13:42;;;;;;;18.17;10.17;;;13.30;99.90;;;;;;6153874;23;20948;-60
2024/03/21 01:16:11;;;;;;;18.27;10.47;;;13.30;99.90;;;;;;6154012;23;20697;-62
2024/03/21 01:18:37;;;;;;;15.27;9.80;;;13.30;99.90;;;;;;6154464;23;20178;-58
2024/03/21 01:21:05;;;;;;;15.90;8.90;;;13.30;99.90;;;;;;6154188;23;20398;-60
2024/03/21 01:23:31;;;;;;;17.47;8.60;;;13.30;99.90;;;;;;6153807;23;20752;-62
2024/03/21 01:26:00;;;;;;;15.70;9.10;;;13.30;99.90;;;;;;6154036;23;20469;-63
2024/03/21 01:28:26;;;;;;;19.30;9.60;;;13.20;99.90;;;;;;6154320;23;20799;-61
2024/03/21 01:30:52;;;;;;;18.73;8.97;;;13.30;99.90;;;;;;6153862;23;20469;-61
2024/03/21 01:33:18;;;;;;;12.47;8.20;;;13.30;99.90;;;;;;6154138;23;20700;-58
2024/03/21 01:35:46;;;;;;;15.00;9.57;;;13.30;99.90;;;;;;6153954;23;20402;-59
2024/03/21 01:38:13;;;;;;;19.07;10.60;;;13.30;99.90;;;;;;6154260;23;20889;-60
2024/03/21 01:40:41;;;;;;;15.57;9.37;;;13.20;99.90;;;;;;6153893;23;20398;-62
2024/03/21 01:43:20;;;;;;;17.83;9.93;;;13.20;99.90;;;;;;6153531;23;20746;-61
2024/03/21 01:46:08;;;;;;;15.33;8.60;;;13.20;99.90;;;;;;6154483;23;20591;-60
2024/03/21 01:48:34;;;;;;;16.50;9.67;;;13.20;99.90;;;;;;6154436;23;20387;-59
2024/03/21 01:51:02;;;;;;;14.50;9.93;;;13.30;99.90;;;;;;6153676;23;20438;-60
2024/03/21 01:53:29;;;;;;;16.40;9.67;;;13.20;99.90;;;;;;6152663;23;20517;-60
2024/03/21 01:55:56;;;;;;;14.30;8.83;;;13.20;99.90;;;;;;6154101;23;20402;-61
2024/03/21 01:58:24;;;;;;;15.73;9.57;;;13.20;99.90;;;;;;6154043;23;20402;-61
2024/03/21 02:00:51;;;;;;;14.40;8.73;;;13.20;99.90;;;;;;6155710;23;20406;-59
2024/03/21 02:03:17;;;;;;;16.23;9.83;;;13.20;99.90;;;;;;6156116;23;20518;-61
2024/03/21 02:05:44;;;;;;;19.10;10.83;;;13.10;99.90;;;;;;6155880;23;20402;-59
2024/03/21 02:08:10;;;;;;;17.97;10.43;;;13.10;99.90;;;;;;6155652;23;20417;-60
2024/03/21 02:10:37;;;;;;;18.97;11.00;;;13.10;99.90;;;;;;6156038;23;20448;-61
2024/03/21 02:13:03;;;;;;;19.60;11.90;;;13.10;99.90;;;;;;6155187;23;20222;-61
2024/03/21 02:15:31;;;;;;;19.47;13.23;;;13.10;99.90;;;;;;6155796;23;20402;-61
2024/03/21 02:17:58;;;;;;;13.77;9.90;;;13.10;99.90;;;;;;6155983;23;20409;-62
2024/03/21 02:20:26;;;;;;;17.07;11.27;;;13.00;99.90;;;;;;6155883;23;20449;-62
2024/03/21 02:22:53;;;;;;;16.87;10.47;;;13.00;99.90;;;;;;6155494;23;20421;-62
2024/03/21 02:25:20;;;;;;;13.33;8.87;;;13.00;99.90;;;;;;6155550;23;20494;-61
2024/03/21 02:27:46;;;;;;;14.27;9.10;;;13.00;99.90;;;;;;6155721;23;20438;-62
2024/03/21 02:30:13;;;;;;;15.07;8.83;;;12.90;99.90;;;;;;6155414;23;20442;-58
2024/03/21 02:32:38;;;;;;;20.10;10.10;;;12.90;99.90;;;;;;6155258;23;20225;-60
2024/03/21 02:35:07;;;;;;;16.90;10.07;;;12.90;99.90;;;;;;6155391;23;20413;-61
2024/03/21 02:37:34;;;;;;;18.90;12.10;;;12.90;99.90;;;;;;6155797;23;20260;-61
2024/03/21 02:40:03;;;;;;;17.13;9.53;;;12.90;99.90;;;;;;6155559;23;20410;-61
2024/03/21 02:42:29;;;;;;;20.17;10.43;;;12.90;99.90;;;;;;6155378;23;20201;-61
2024/03/21 02:44:55;;;;;;;19.10;9.93;;;12.90;99.90;;;;;;6155307;23;20774;-58
2024/03/21 02:47:21;;;;;;;18.73;9.90;;;12.90;99.90;;;;;;6155554;23;20175;-61
2024/03/21 02:49:48;;;;;;;33.07;19.43;;;12.80;99.90;;;;;;6155738;23;20920;-61
2024/03/21 02:52:14;;;;;;;24.40;14.83;;;12.80;99.90;;;;;;6154900;23;20589;-61
2024/03/21 02:54:41;;;;;;;18.73;11.50;;;12.80;99.90;;;;;;6155434;23;20489;-60
2024/03/21 02:57:10;;;;;;;21.17;11.17;;;12.80;99.90;;;;;;6155186;23;20205;-61
2024/03/21 02:59:37;;;;;;;18.13;10.90;;;12.80;99.90;;;;;;6155401;23;20410;-64
2024/03/21 03:02:03;;;;;;;18.17;9.70;;;12.80;99.90;;;;;;6155319;23;20423;-61
2024/03/21 03:04:30;;;;;;;18.60;11.37;;;12.70;99.90;;;;;;6156023;23;20398;-59
2024/03/21 03:06:56;;;;;;;13.73;9.80;;;12.70;99.90;;;;;;6154901;23;20416;-62
2024/03/21 03:09:23;;;;;;;16.80;9.93;;;12.70;99.90;;;;;;6155342;23;20476;-60
2024/03/21 03:11:49;;;;;;;20.83;11.10;;;12.70;99.90;;;;;;6155002;23;20814;-60
2024/03/21 03:14:18;;;;;;;17.47;10.00;;;12.70;99.90;;;;;;6155065;23;20403;-62
2024/03/21 03:16:43;;;;;;;16.83;11.10;;;12.70;99.90;;;;;;6155030;23;20406;-61
2024/03/21 03:19:10;;;;;;;17.70;10.83;;;12.70;99.90;;;;;;6155137;23;20434;-61
2024/03/21 03:21:36;;;;;;;18.43;10.10;;;12.70;99.90;;;;;;6154736;23;20249;-59
2024/03/21 03:24:03;;;;;;;14.93;10.83;;;12.60;99.90;;;;;;6155302;23;20433;-64
2024/03/21 03:26:29;;;;;;;13.60;9.40;;;12.60;99.90;;;;;;6155379;23;20545;-59
2024/03/21 03:28:56;;;;;;;23.00;9.30;;;12.50;99.90;;;;;;6154927;23;20444;-60
2024/03/21 03:31:23;;;;;;;16.27;10.20;;;12.50;99.90;;;;;;6155155;23;20758;-63
2024/03/21 03:36:35;;;;;;;15.20;10.30;;;12.50;99.90;;;;;;6155119;23;20374;-60
2024/03/21 03:39:02;;;;;;;18.33;10.27;;;12.40;99.90;;;;;;6155109;23;20402;-61
2024/03/21 03:41:29;;;;;;;19.30;11.63;;;12.40;99.90;;;;;;6154840;23;20497;-61
2024/03/21 03:43:58;;;;;;;23.10;12.30;;;12.40;99.90;;;;;;6154993;23;20488;-62
2024/03/21 03:46:26;;;;;;;20.70;11.93;;;12.30;99.90;;;;;;6155149;23;20492;-61
2024/03/21 03:48:52;;;;;;;20.43;10.37;;;12.30;99.90;;;;;;6155219;23;20406;-61
2024/03/21 03:51:18;;;;;;;21.80;11.83;;;12.30;99.90;;;;;;6155042;23;20837;-60
2024/03/21 03:53:44;;;;;;;22.30;10.43;;;12.20;99.90;;;;;;6154139;23;20763;-59
2024/03/21 03:56:11;;;;;;;17.50;10.93;;;12.20;99.90;;;;;;6155224;23;20409;-61
2024/03/21 03:58:37;;;;;;;16.17;10.40;;;12.20;99.90;;;;;;6154768;23;20972;-61
2024/03/21 04:01:04;;;;;;;22.03;11.60;;;12.10;99.90;;;;;;6154983;23;20422;-60
2024/03/21 04:03:31;;;;;;;23.50;11.03;;;12.10;99.90;;;;;;6154678;23;20277;-61
2024/03/21 04:05:59;;;;;;;19.53;12.07;;;12.00;99.90;;;;;;6155465;23;20416;-61
2024/03/21 04:08:26;;;;;;;25.10;11.30;;;12.00;99.90;;;;;;6156804;23;20500;-59
2024/03/21 04:10:52;;;;;;;20.00;11.57;;;12.00;99.90;;;;;;6156061;23;20935;-61
2024/03/21 04:13:18;;;;;;;16.57;11.57;;;11.90;99.90;;;;;;6156101;23;20940;-60
2024/03/21 04:15:50;;;;;;;21.27;11.10;;;11.90;99.90;;;;;;6156811;23;20406;-62
2024/03/21 04:18:16;;;;;;;19.73;11.77;;;11.90;99.90;;;;;;6155163;23;20414;-57
2024/03/21 04:20:44;;;;;;;24.90;11.37;;;12.00;99.90;;;;;;6155118;23;20421;-60
2024/03/21 04:23:10;;;;;;;17.37;10.67;;;12.00;99.90;;;;;;6154471;23;20278;-60
2024/03/21 04:25:37;;;;;;;14.30;9.83;;;11.90;99.90;;;;;;6154614;23;20779;-57
2024/03/21 04:28:03;;;;;;;17.00;10.97;;;11.90;99.90;;;;;;6154453;23;20206;-60
2024/03/21 04:30:30;;;;;;;20.80;11.07;;;11.90;99.90;;;;;;6154642;23;20504;-60
2024/03/21 04:32:57;;;;;;;22.87;10.47;;;11.90;99.90;;;;;;6153781;23;20449;-61
2024/03/21 04:35:24;;;;;;;19.73;10.70;;;11.90;99.90;;;;;;6154887;23;20402;-61
2024/03/21 04:37:53;;;;;;;15.40;10.53;;;11.90;99.90;;;;;;6154642;23;20473;-61
2024/03/21 04:40:19;;;;;;;15.67;9.50;;;11.90;99.90;;;;;;6153872;23;20489;-60
2024/03/21 04:42:46;;;;;;;25.30;11.80;;;11.90;99.90;;;;;;6154126;23;20501;-61
2024/03/21 04:45:13;;;;;;;20.70;12.43;;;11.80;99.90;;;;;;6155248;23;20485;-61
2024/03/21 04:47:40;;;;;;;22.73;12.13;;;11.80;99.90;;;;;;6154943;23;20785;-57
2024/03/21 04:50:06;;;;;;;15.80;9.90;;;11.80;99.90;;;;;;6154699;23;20426;-60
2024/03/21 04:52:33;;;;;;;18.20;10.77;;;11.70;99.90;;;;;;6153811;23;20442;-60
2024/03/21 04:55:00;;;;;;;20.60;11.20;;;11.70;99.90;;;;;;6154588;23;20763;-62
2024/03/21 04:57:27;;;;;;;21.20;12.00;;;11.70;99.90;;;;;;6154712;23;20407;-60
2024/03/21 04:59:54;;;;;;;23.33;11.57;;;11.80;99.90;;;;;;6154013;23;20412;-60
2024/03/21 05:02:21;;;;;;;17.77;10.60;;;11.80;99.90;;;;;;6154182;23;20418;-58
2024/03/21 05:04:48;;;;;;;24.20;12.23;;;11.80;99.90;;;;;;6154313;23;20434;-60
2024/03/21 05:07:15;;;;;;;26.10;13.60;;;11.70;99.90;;;;;;6153867;23;20496;-61
2024/03/21 05:09:41;;;;;;;16.77;12.47;;;11.70;99.90;;;;;;6154656;23;20492;-61
2024/03/21 05:12:09;;;;;;;19.50;11.73;;;11.60;99.90;;;;;;6154069;23;20488;-61
2024/03/21 05:14:35;;;;;;;19.20;11.50;;;11.50;99.90;;;;;;6154485;23;20506;-58
2024/03/21 05:17:03;;;;;;;20.67;12.00;;;11.50;99.90;;;;;;6154027;23;20437;-58
2024/03/21 05:19:29;;;;;;;22.33;13.27;;;11.50;99.90;;;;;;6153735;23;20407;-57
2024/03/21 05:21:56;;;;;;;23.50;13.30;;;11.50;99.90;;;;;;6153880;23;20418;-62
2024/03/21 05:24:22;;;;;;;21.50;11.83;;;11.50;99.90;;;;;;6153944;23;20442;-61
2024/03/21 05:26:49;;;;;;;27.07;13.27;;;11.40;99.90;;;;;;6154273;23;20402;-62
2024/03/21 05:29:16;;;;;;;24.80;12.27;;;11.50;99.90;;;;;;6154276;23;20402;-61
2024/03/21 05:31:43;;;;;;;20.33;11.27;;;11.50;99.90;;;;;;6154099;23;20497;-58
2024/03/21 05:34:09;;;;;;;21.43;12.60;;;11.40;99.90;;;;;;6153567;23;20434;-68
2024/03/21 05:36:36;;;;;;;22.07;12.90;;;11.40;99.90;;;;;;6153810;23;20402;-61
2024/03/21 05:39:03;;;;;;;18.90;11.83;;;11.40;99.90;;;;;;6154111;23;20258;-60
2024/03/21 05:41:30;;;;;;;22.20;12.60;;;11.40;99.90;;;;;;6153666;23;20492;-61
2024/03/21 05:43:56;;;;;;;20.60;11.43;;;11.50;99.90;;;;;;6153927;23;20497;-60
2024/03/21 05:46:26;;;;;;;29.40;11.33;;;11.50;99.90;;;;;;6154051;23;20398;-60
2024/03/21 05:48:53;;;;;;;19.73;11.00;;;11.50;99.90;;;;;;6154607;23;20434;-62
2024/03/21 05:51:20;;;;;;;20.53;11.87;;;11.60;99.90;;;;;;6154187;23;20438;-59
2024/03/21 05:53:46;;;;;;;17.60;11.70;;;11.60;99.90;;;;;;6153570;23;20480;-58
2024/03/21 05:56:15;;;;;;;25.07;12.37;;;11.50;99.90;;;;;;6153916;23;20407;-61
2024/03/21 05:58:43;;;;;;;22.80;11.50;;;11.60;99.90;;;;;;6154054;23;20947;-60
2024/03/21 06:01:22;;;;;;;23.53;12.30;;;11.60;99.90;;;;;;6154196;23;20407;-59
2024/03/21 06:03:50;;;;;;;16.70;10.70;;;11.60;99.90;;;;;;6153930;23;20706;-62
2024/03/21 06:06:17;;;;;;;26.63;12.40;;;11.60;99.90;;;;;;6153783;23;20410;-60
2024/03/21 06:08:44;;;;;;;22.93;11.90;;;11.60;99.90;;;;;;6153881;23;20414;-60
2024/03/21 06:11:10;;;;;;;21.43;12.90;;;11.60;99.90;;;;;;6153843;23;20839;-62
2024/03/21 06:13:36;;;;;;;22.17;14.13;;;11.60;99.90;;;;;;6153742;23;20949;-62
2024/03/21 06:16:05;;;;;;;26.90;14.77;;;11.70;99.90;;;;;;6154162;23;20409;-61
2024/03/21 06:18:30;;;;;;;25.40;15.40;;;11.70;99.90;;;;;;6154157;23;20446;-60
2024/03/21 06:20:59;;;;;;;22.17;14.30;;;11.70;99.90;;;;;;6153731;23;20738;-58
2024/03/21 06:23:25;;;;;;;25.87;15.80;;;11.80;99.90;;;;;;6154006;23;20275;-60
2024/03/21 06:25:51;;;;;;;21.57;13.83;;;11.80;99.90;;;;;;6154211;23;20437;-61
2024/03/21 06:28:17;;;;;;;20.57;11.70;;;11.80;99.90;;;;;;6154096;23;20425;-61
2024/03/21 06:30:44;;;;;;;20.80;12.43;;;11.80;99.90;;;;;;6153806;23;20398;-60
2024/03/21 06:33:10;;;;;;;19.07;12.60;;;11.80;99.90;;;;;;6153346;23;20423;-61
2024/03/21 06:35:41;;;;;;;19.13;12.53;;;11.80;99.90;;;;;;6153949;23;20714;-61
2024/03/21 06:38:08;;;;;;;23.13;11.93;;;11.80;99.90;;;;;;6153795;23;20387;-61
2024/03/21 06:40:36;;;;;;;17.37;12.30;;;11.80;99.90;;;;;;6153891;23;20414;-61
2024/03/21 06:43:02;;;;;;;24.20;13.60;;;11.80;99.90;;;;;;6153139;23;20422;-62
2024/03/21 06:45:28;;;;;;;24.50;12.77;;;11.80;99.90;;;;;;6154149;23;20402;-62
2024/03/21 06:47:56;;;;;;;18.23;12.10;;;11.80;99.90;;;;;;6155450;23;20899;-61
2024/03/21 06:50:23;;;;;;;25.40;11.87;;;11.80;99.90;;;;;;6155513;23;20406;-61
2024/03/21 06:52:50;;;;;;;20.30;11.50;;;11.80;99.90;;;;;;6154623;23;20449;-61
2024/03/21 06:55:19;;;;;;;16.93;11.70;;;11.80;99.90;;;;;;6155981;23;20401;-58
2024/03/21 06:57:47;;;;;;;16.40;11.13;;;11.70;99.90;;;;;;6155477;23;20788;-61
2024/03/21 07:00:18;;;;;;;24.10;11.67;;;11.80;99.90;;;;;;6155803;23;20736;-61
2024/03/21 07:02:44;;;;;;;18.47;11.73;;;12.30;99.90;;;;;;6155538;23;20422;-60
2024/03/21 07:05:12;;;;;;;18.20;12.27;;;11.70;99.90;;;;;;6155147;23;20472;-62
2024/03/21 07:07:38;;;;;;;17.90;11.40;;;11.60;99.90;;;;;;6155375;23;20186;-60
2024/03/21 07:10:06;;;;;;;19.60;11.67;;;11.60;99.90;;;;;;6155537;23;20506;-62
2024/03/21 07:12:35;;;;;;;40.03;15.17;;;11.60;99.90;;;;;;6154960;23;20773;-62
2024/03/21 07:15:04;;;;;;;21.80;13.00;;;11.50;99.90;;;;;;6155492;23;20788;-57
2024/03/21 07:17:29;;;;;;;24.67;13.27;;;11.40;99.90;;;;;;6154849;23;20488;-61
2024/03/21 07:19:56;;;;;;;28.47;14.53;;;11.40;99.90;;;;;;6155546;23;20437;-62
2024/03/21 07:22:22;;;;;;;19.43;13.50;;;11.40;99.90;;;;;;6154716;23;20218;-60
2024/03/21 07:24:49;;;;;;;31.60;15.47;;;11.40;99.90;;;;;;6155097;23;20737;-60
2024/03/21 07:27:16;;;;;;;28.13;14.37;;;11.40;99.90;;;;;;6155348;23;20419;-61
2024/03/21 07:29:46;;;;;;;29.80;15.77;;;11.40;99.90;;;;;;6155491;23;20402;-59
2024/03/21 07:32:12;;;;;;;22.63;15.17;;;11.40;99.90;;;;;;6154218;23;20446;-60
2024/03/21 07:34:39;;;;;;;22.40;13.40;;;11.40;99.90;;;;;;6155257;23;20402;-61
2024/03/21 07:37:05;;;;;;;24.37;14.57;;;11.50;99.90;;;;;;6155037;23;20213;-61
2024/03/21 07:39:32;;;;;;;25.60;15.33;;;11.50;99.90;;;;;;6155042;23;20406;-62
2024/03/21 07:41:59;;;;;;;23.63;14.63;;;11.50;99.90;;;;;;6154466;23;20665;-59
2024/03/21 07:44:26;;;;;;;25.10;15.07;;;11.50;99.90;;;;;;6155001;23;20406;-59
2024/03/21 07:46:53;;;;;;;25.60;15.00;;;11.60;99.90;;;;;;6154840;23;20442;-62
2024/03/21 07:49:20;;;;;;;33.60;16.17;;;11.60;99.90;;;;;;6155102;23;20414;-62
2024/03/21 07:51:47;;;;;;;28.93;14.47;;;11.60;99.90;;;;;;6154343;23;20489;-61
2024/03/21 07:54:14;;;;;;;31.50;17.10;;;11.70;99.90;;;;;;6154359;23;20412;-57
2024/03/21 07:56:40;;;;;;;38.43;15.83;;;11.70;99.90;;;;;;6154788;23;20795;-58
2024/03/21 07:59:07;;;;;;;28.23;15.33;;;11.70;99.90;;;;;;6155058;23;20781;-57
2024/03/21 08:01:33;;;;;;;24.37;14.93;;;11.70;99.90;;;;;;6154975;23;20404;-60
2024/03/21 08:04:04;;;;;;;24.00;15.37;;;11.60;99.90;;;;;;6154199;23;20414;-61
2024/03/21 08:06:30;;;;;;;27.17;15.90;;;11.60;99.90;;;;;;6154792;23;20496;-57
2024/03/21 08:08:57;;;;;;;25.60;14.53;;;11.50;99.90;;;;;;6154591;23;20465;-61
2024/03/21 08:11:23;;;;;;;24.17;14.03;;;11.20;99.90;;;;;;6154414;23;20442;-61
2024/03/21 08:13:51;;;;;;;29.70;14.90;;;11.10;99.90;;;;;;6154186;23;20416;-60
2024/03/21 08:16:17;;;;;;;29.60;16.73;;;11.00;99.90;;;;;;6154819;23;20414;-61
2024/03/21 08:18:47;;;;;;;30.90;15.07;;;10.90;99.90;;;;;;6154619;23;20505;-59
2024/03/21 08:21:14;;;;;;;23.47;16.10;;;10.90;99.90;;;;;;6154772;23;20825;-61
2024/03/21 08:23:41;;;;;;;30.50;16.60;;;10.90;99.90;;;;;;6154165;23;20476;-60
2024/03/21 08:26:07;;;;;;;25.37;14.90;;;10.90;99.90;;;;;;6154899;23;20493;-62
2024/03/21 08:28:35;;;;;;;26.40;17.00;;;11.00;99.90;;;;;;6154838;23;20958;-61
2024/03/21 08:31:01;;;;;;;26.47;16.43;;;11.10;99.90;;;;;;6154570;23;20178;-60
2024/03/21 08:33:28;;;;;;;30.27;14.77;;;11.10;99.90;;;;;;6153864;23;21022;-64
2024/03/21 08:35:54;;;;;;;31.40;17.17;;;11.20;99.90;;;;;;6154461;23;20418;-64
2024/03/21 08:38:23;;;;;;;28.80;16.10;;;11.20;99.90;;;;;;6154387;23;20402;-62
2024/03/21 08:40:50;;;;;;;24.53;14.97;;;11.20;99.90;;;;;;6154257;23;20406;-60
2024/03/21 08:43:17;;;;;;;31.67;17.00;;;11.20;99.90;;;;;;6153997;23;20422;-60
2024/03/21 08:45:45;;;;;;;33.10;17.63;;;11.20;99.90;;;;;;6154574;23;20414;-63
2024/03/21 08:48:13;;;;;;;27.40;16.57;;;11.20;99.90;;;;;;6154269;23;20406;-61
2024/03/21 08:50:39;;;;;;;25.50;15.73;;;11.30;99.90;;;;;;6154407;23;20410;-60
2024/03/21 08:53:06;;;;;;;25.10;17.37;;;11.40;99.90;;;;;;6153525;23;20475;-62
2024/03/21 08:55:34;;;;;;;36.57;18.37;;;11.40;99.90;;;;;;6154175;23;20943;-60
2024/03/21 08:58:01;;;;;;;28.00;14.27;;;11.40;99.90;;;;;;6154653;23;20428;-63
2024/03/21 09:00:27;;;;;;;27.33;17.60;;;11.40;99.90;;;;;;6154040;23;20402;-63
2024/03/21 09:02:53;;;;;;;29.40;17.00;;;11.40;99.90;;;;;;6153310;23;20418;-62
2024/03/21 09:05:19;;;;;;;33.20;16.73;;;11.40;99.90;;;;;;6153955;23;20484;-58
2024/03/21 09:07:47;;;;;;;25.20;16.47;;;11.40;99.90;;;;;;6153821;23;20445;-60
2024/03/21 09:10:12;;;;;;;27.93;17.23;;;11.40;99.90;;;;;;6153532;23;20402;-61
2024/03/21 09:12:42;;;;;;;30.47;17.77;;;11.40;99.90;;;;;;6153895;23;20521;-63
2024/03/21 09:15:10;;;;;;;30.67;16.03;;;11.50;99.90;;;;;;6153804;23;20437;-62
2024/03/21 09:17:37;;;;;;;27.67;17.00;;;11.50;99.90;;;;;;6153598;23;20441;-59
2024/03/21 09:20:04;;;;;;;24.77;15.10;;;11.50;99.90;;;;;;6154263;23;20485;-62
2024/03/21 09:22:32;;;;;;;29.37;16.60;;;11.50;99.90;;;;;;6153937;23;20469;-63
2024/03/21 09:24:58;;;;;;;28.23;16.40;;;11.60;99.90;;;;;;6154137;23;20414;-61
2024/03/21 09:27:25;;;;;;;25.60;15.07;;;11.60;99.90;;;;;;6154307;23;20406;-61
2024/03/21 09:29:52;;;;;;;32.93;16.90;;;11.70;99.90;;;;;;6153613;23;20457;-61
2024/03/21 09:32:22;;;;;;;26.77;15.90;;;11.70;99.90;;;;;;6153721;23;20492;-63
2024/03/21 09:34:51;;;;;;;27.30;16.93;;;11.70;99.90;;;;;;6154396;23;20458;-61
2024/03/21 09:37:18;;;;;;;26.80;15.77;;;11.80;99.90;;;;;;6153990;23;20485;-62
2024/03/21 09:39:44;;;;;;;25.83;15.60;;;11.80;99.90;;;;;;6154245;23;20791;-61
2024/03/21 09:42:16;;;;;;;29.57;15.53;;;11.90;99.90;;;;;;6153877;23;20457;-62
2024/03/21 09:44:45;;;;;;;26.50;14.40;;;11.90;99.90;;;;;;6153985;23;20390;-62
2024/03/21 09:47:14;;;;;;;31.20;16.03;;;12.00;99.90;;;;;;6153859;23;20872;-61
2024/03/21 09:49:40;;;;;;;29.30;15.87;;;12.00;99.90;;;;;;6153533;23;20493;-61
2024/03/21 09:52:09;;;;;;;27.97;16.20;;;11.90;99.90;;;;;;6153397;23;20442;-62
2024/03/21 09:54:35;;;;;;;29.83;14.93;;;12.00;99.90;;;;;;6153677;23;20494;-64
2024/03/21 09:57:03;;;;;;;31.80;17.30;;;12.00;99.90;;;;;;6153844;23;20410;-62
2024/03/21 09:59:28;;;;;;;30.70;16.13;;;12.10;99.90;;;;;;6154225;23;20932;-64
2024/03/21 10:01:55;;;;;;;30.40;16.33;;;12.20;99.90;;;;;;6153512;23;20423;-62
2024/03/21 10:04:23;;;;;;;29.00;17.17;;;12.30;99.90;;;;;;6153965;23;20567;-62
2024/03/21 10:06:50;;;;;;;33.20;17.50;;;12.50;99.90;;;;;;6153855;23;20920;-62
2024/03/21 10:09:17;;;;;;;33.73;15.47;;;12.80;99.90;;;;;;6154112;23;20801;-62
2024/03/21 10:11:44;;;;;;;22.33;13.03;;;13.30;99.90;;;;;;6153267;23;20501;-60
2024/03/21 10:14:13;;;;;;;28.23;12.63;;;13.90;99.90;;;;;;6153945;23;20495;-66
2024/03/21 10:16:41;;;;;;;16.87;9.93;;;14.60;99.90;;;;;;6153770;23;20445;-63
2024/03/21 10:19:08;;;;;;;16.90;11.47;;;15.40;99.90;;;;;;6154003;23;20408;-60
2024/03/21 10:21:37;;;;;;;15.10;9.10;;;16.00;99.90;;;;;;6155525;23;20766;-62
2024/03/21 10:24:04;;;;;;;16.00;9.63;;;16.70;99.90;;;;;;6155022;23;20402;-63
2024/03/21 10:26:32;;;;;;;12.00;7.60;;;17.60;99.90;;;;;;6155769;23;20770;-63
2024/03/21 10:28:59;;;;;;;10.00;5.80;;;18.50;99.90;;;;;;6155426;23;20406;-61
2024/03/21 10:31:26;;;;;;;11.30;6.47;;;19.20;99.90;;;;;;6155514;23;20408;-63
2024/03/21 10:33:54;;;;;;;13.90;6.00;;;19.90;99.90;;;;;;6155298;23;20402;-63
2024/03/21 10:36:22;;;;;;;8.93;6.87;;;20.40;99.90;;;;;;6155320;23;21023;-61
2024/03/21 10:38:50;;;;;;;10.30;5.47;;;20.80;99.90;;;;;;6155370;23;20406;-63
2024/03/21 10:41:24;;;;;;;4.90;3.57;;;21.20;99.90;;;;;;6155418;23;20409;-60
2024/03/21 10:43:56;;;;;;;7.33;4.00;;;21.30;99.90;;;;;;6155550;23;20382;-62
2024/03/21 10:46:24;;;;;;;9.50;4.03;;;21.40;99.90;;;;;;6156153;23;20386;-60
2024/03/21 10:48:51;;;;;;;6.40;4.97;;;21.50;99.90;;;;;;6155421;23;20869;-62
2024/03/21 10:51:21;;;;;;;5.63;4.03;;;21.50;99.90;;;;;;6155647;23;20901;-59
2024/03/21 10:53:56;;;;;;;6.87;3.30;;;21.30;99.90;;;;;;6155040;23;20441;-62
2024/03/21 10:56:28;;;;;;;7.87;4.27;;;21.20;99.90;;;;;;6155785;23;20788;-61
2024/03/21 10:58:57;;;;;;;5.03;3.77;;;21.10;99.90;;;;;;6156052;23;20406;-62
2024/03/21 11:01:38;;;;;;;6.43;3.53;;;20.80;99.90;;;;;;6155790;23;20406;-60
2024/03/21 11:04:05;;;;;;;7.77;4.33;;;20.60;99.90;;;;;;6155400;23;20409;-61
2024/03/21 11:06:35;;;;;;;5.77;3.47;;;20.30;99.90;;;;;;6154974;23;20496;-62
2024/03/21 11:09:05;;;;;;;4.87;3.90;;;20.10;99.90;;;;;;6155614;23;20417;-61
2024/03/21 11:11:33;;;;;;;6.43;4.47;;;19.90;99.90;;;;;;6154819;23;20442;-61
2024/03/21 11:14:03;;;;;;;5.23;4.10;;;19.70;99.90;;;;;;6155367;23;20441;-62
2024/03/21 11:16:31;;;;;;;5.10;4.17;;;19.60;99.90;;;;;;6155285;23;20406;-59
2024/03/21 11:18:59;;;;;;;5.70;4.17;;;19.40;99.90;;;;;;6155135;23;20410;-63
2024/03/21 11:21:26;;;;;;;7.10;4.47;;;19.30;99.90;;;;;;6154954;23;20414;-59
2024/03/21 11:23:53;;;;;;;6.67;3.73;;;19.00;99.90;;;;;;6155181;23;20461;-60
2024/03/21 11:26:21;;;;;;;4.30;3.20;;;18.70;99.90;;;;;;6155426;23;20407;-61
2024/03/21 11:28:50;;;;;;;6.23;3.87;;;18.50;99.90;;;;;;6155367;23;20402;-61
2024/03/21 11:31:22;;;;;;;5.23;4.03;;;18.40;99.90;;;;;;6154849;23;20414;-62
2024/03/21 11:33:48;;;;;;;5.93;3.87;;;18.40;99.90;;;;;;6154565;23;20438;-60
2024/03/21 11:36:17;;;;;;;6.87;3.30;;;18.30;99.90;;;;;;6154841;23;20943;-63
2024/03/21 11:38:44;;;;;;;5.80;3.77;;;18.10;99.90;;;;;;6154999;23;20777;-61
2024/03/21 11:41:19;;;;;;;7.37;3.93;;;17.80;99.90;;;;;;6154687;23;20406;-56
2024/03/21 11:43:50;;;;;;;4.53;3.20;;;17.60;99.90;;;;;;6154201;23;20422;-61
2024/03/21 11:46:19;;;;;;;4.03;2.57;;;17.60;99.90;;;;;;6155265;23;20643;-60
2024/03/21 11:48:59;;;;;;;5.33;3.70;;;17.20;99.90;;;;;;6154859;23;20410;-62
2024/03/21 11:51:26;;;;;;;3.60;2.80;;;17.10;99.90;;;;;;6154503;23;20760;-62
2024/03/21 11:53:52;;;;;;;4.50;3.30;;;17.00;99.90;;;;;;6154356;23;20446;-60
2024/03/21 11:56:20;;;;;;;4.70;3.40;;;16.70;99.90;;;;;;6154764;23;20464;-59
2024/03/21 11:58:46;;;;;;;4.63;3.00;;;16.60;99.90;;;;;;6155183;23;20406;-60
2024/03/21 12:01:15;;;;;;;2.33;2.00;;;16.60;99.90;;;;;;6154716;23;20413;-61
2024/03/21 12:03:41;;;;;;;3.30;3.00;;;16.60;99.90;;;;;;6154229;23;20458;-61
2024/03/21 12:06:10;;;;;;;3.60;2.60;;;16.40;99.90;;;;;;6154778;23;20712;-61
2024/03/21 12:08:36;;;;;;;3.30;2.67;;;16.30;99.90;;;;;;6154699;23;20391;-61
2024/03/21 12:11:03;;;;;;;2.30;2.10;;;16.30;99.90;;;;;;6154514;23;20484;-61
2024/03/21 12:13:29;;;;;;;3.40;3.10;;;16.20;99.90;;;;;;6153617;23;20448;-60
2024/03/21 12:15:56;;;;;;;4.70;2.83;;;16.20;99.90;;;;;;6154458;23;20409;-60
2024/03/21 12:18:27;;;;;;;3.73;2.90;;;16.20;99.90;;;;;;6155055;23;20409;-60
2024/03/21 12:20:54;;;;;;;4.67;2.53;;;16.10;99.90;;;;;;6154744;23;20395;-61
2024/03/21 12:23:21;;;;;;;4.03;3.23;;;16.20;99.90;;;;;;6154937;23;20418;-56
2024/03/21 12:25:48;;;;;;;2.57;2.37;;;16.40;99.90;;;;;;6154499;23;20481;-57
2024/03/21 12:28:15;;;;;;;3.10;2.33;;;16.60;99.90;;;;;;6154297;23;20800;-61
2024/03/21 12:30:42;;;;;;;3.50;2.40;;;16.70;99.90;;;;;;6154557;23;20407;-57
2024/03/21 12:33:10;;;;;;;2.13;1.77;;;16.70;99.90;;;;;;6154080;23;20456;-55
2024/03/21 12:35:38;;;;;;;4.07;2.60;;;16.70;99.90;;;;;;6154715;23;20939;-60